Bemidji Regional Airport
KBJI : now visible

Airfield :











YOU CAN JOIN US ON...

 
LOGIN :

Register | Disclaimer

   EN    FR    IT 

 









Legend :    VFR   Marginal VFR   IFR   Intensive IFR   Very Intensive IFR
Visi :
Ceiling :
>= 8 km
>= 3000ft
5 to 8 km
1000 to 3000 ft
1500m to 5 km
500 to 1000 ft
800 to 1500m
200 to 500 ft
< 800m
< 200 ft
Symbols :   Thunderstorms  Fog  Heavy snow  Heavy precipitations  Wind > 20 kt






- Airport Elevation : 1391 ft


KBJI - Bemidji Regional

CURRENT METAR :
  • 121615Z AUTO 21008KT 10SM CLR 18/M05 A3035 RMK AO2 T01761046

EXPIRED METARs :
  • 121555Z AUTO 24005KT 10SM CLR 17/M04 A3035 RMK AO2 T01711045
  • 121535Z AUTO 23008KT 10SM CLR 16/M05 A3035 RMK AO2 T01641046
  • 121515Z AUTO 20006KT 10SM CLR 16/M04 A3035 RMK AO2 T01631038
  • 121455Z AUTO 21008KT 10SM CLR 16/M04 A3036 RMK AO2 T01581038
  • 121435Z AUTO 23006KT 10SM CLR 15/M03 A3036 RMK AO2 T01491033
  • 121415Z AUTO 23005KT 10SM CLR 14/M04 A3036 RMK AO2 T01411036
  • 121355Z AUTO 22004KT 10SM CLR 13/M03 A3036 RMK AO2 T01301033
  • 121335Z AUTO 23007KT 10SM CLR 12/M03 A3037 RMK AO2 T01171033

TAF KBJI
Valid from the 12 at 12:00 until the 13 at 12:00 UTC


121120Z 1212/1312 00000KT P6SM SKC
FM121800 22007KT P6SM SKC
KZMP FIR / North America



MET'MAP, your aeronautical weather chart ! - Copyright ORBIFLY December 2007 - Disclaimer

ORBIFLY MET'MAP TEAM :

Programming & Development : Alexandra Zaïnal
Concept & original design : Baudouin d'Aumeries
Assistance for programming : Marc-Olivier Méhu
Technical & hardware support : Manuel Goepfert

Contact : metmap@orbifly.com




SOURCES & CREDITS :

   NOAA       Earth
Advisory